sensor_id;sensor_type;location;lat;lon;timestamp;pressure;altitude;pressure_sealevel;temperature;humidity
10482;BME280;5288;42.334;23.876;2022-10-16T00:01:16;56397.25;;;-140.56;72.17
10482;BME280;5288;42.334;23.876;2022-10-16T00:03:44;56409.13;;;-140.56;72.75
10482;BME280;5288;42.334;23.876;2022-10-16T00:06:13;56399.25;;;-140.56;72.65
10482;BME280;5288;42.334;23.876;2022-10-16T00:08:40;56415.06;;;-140.56;72.75
10482;BME280;5288;42.334;23.876;2022-10-16T00:11:11;56399.25;;;-140.56;72.55
10482;BME280;5288;42.334;23.876;2022-10-16T00:13:41;56409.13;;;-140.56;72.50
10482;BME280;5288;42.334;23.876;2022-10-16T00:16:09;56405.16;;;-140.56;72.70
10482;BME280;5288;42.334;23.876;2022-10-16T00:18:38;56430.88;;;-140.56;73.24
10482;BME280;5288;42.334;23.876;2022-10-16T00:21:08;56430.88;;;-140.56;73.12
10482;BME280;5288;42.334;23.876;2022-10-16T00:23:36;56379.47;;;-140.56;73.15
10482;BME280;5288;42.334;23.876;2022-10-16T00:26:05;56417.03;;;-140.56;73.67
10482;BME280;5288;42.334;23.876;2022-10-16T00:28:35;56411.09;;;-140.56;73.70
10482;BME280;5288;42.334;23.876;2022-10-16T00:31:03;56393.31;;;-140.56;73.75
10482;BME280;5288;42.334;23.876;2022-10-16T00:33:31;56401.22;;;-140.56;73.61
10482;BME280;5288;42.334;23.876;2022-10-16T00:35:59;56409.13;;;-140.56;73.24
10482;BME280;5288;42.334;23.876;2022-10-16T00:38:26;56415.06;;;-140.56;73.38
10482;BME280;5288;42.334;23.876;2022-10-16T00:40:53;56417.03;;;-140.56;73.03
10482;BME280;5288;42.334;23.876;2022-10-16T00:43:37;56424.94;;;-140.56;72.89
10482;BME280;5288;42.334;23.876;2022-10-16T00:46:11;56428.88;;;-140.56;72.66
10482;BME280;5288;42.334;23.876;2022-10-16T00:48:40;56434.81;;;-140.56;72.91
10482;BME280;5288;42.334;23.876;2022-10-16T00:51:08;56422.97;;;-140.56;72.80
10482;BME280;5288;42.334;23.876;2022-10-16T00:53:35;56419.00;;;-140.56;72.53
10482;BME280;5288;42.334;23.876;2022-10-16T00:56:03;56411.09;;;-140.56;72.48
10482;BME280;5288;42.334;23.876;2022-10-16T00:58:31;56420.97;;;-140.56;72.74
10482;BME280;5288;42.334;23.876;2022-10-16T01:01:00;56391.34;;;-140.56;72.73
10482;BME280;5288;42.334;23.876;2022-10-16T01:03:29;56420.97;;;-140.56;72.99
10482;BME280;5288;42.334;23.876;2022-10-16T01:06:18;56434.81;;;-140.56;72.75
10482;BME280;5288;42.334;23.876;2022-10-16T01:08:55;56413.06;;;-140.56;72.92
10482;BME280;5288;42.334;23.876;2022-10-16T01:11:32;56395.28;;;-140.56;72.70
10482;BME280;5288;42.334;23.876;2022-10-16T01:14:06;56434.81;;;-140.56;72.56
10482;BME280;5288;42.334;23.876;2022-10-16T01:16:43;56444.69;;;-140.56;72.63
10482;BME280;5288;42.334;23.876;2022-10-16T01:19:15;56456.56;;;-140.56;73.74
10482;BME280;5288;42.334;23.876;2022-10-16T01:21:46;56417.03;;;-140.56;73.77
10482;BME280;5288;42.334;23.876;2022-10-16T01:24:20;56407.16;;;-140.56;73.90
10482;BME280;5288;42.334;23.876;2022-10-16T01:27:15;56385.41;;;-140.56;74.23
10482;BME280;5288;42.334;23.876;2022-10-16T01:29:49;56424.94;;;-140.56;74.16
10482;BME280;5288;42.334;23.876;2022-10-16T01:32:20;56436.78;;;-140.56;73.81
10482;BME280;5288;42.334;23.876;2022-10-16T01:34:51;56409.13;;;-140.56;73.66
10482;BME280;5288;42.334;23.876;2022-10-16T01:37:27;56413.06;;;-140.56;73.83
10482;BME280;5288;42.334;23.876;2022-10-16T01:39:58;56422.97;;;-140.56;73.95
10482;BME280;5288;42.334;23.876;2022-10-16T01:42:31;56411.09;;;-140.56;73.46
10482;BME280;5288;42.334;23.876;2022-10-16T01:45:02;56407.16;;;-140.56;73.32
10482;BME280;5288;42.334;23.876;2022-10-16T01:47:33;56424.94;;;-140.56;73.33
10482;BME280;5288;42.334;23.876;2022-10-16T01:50:03;56405.16;;;-140.56;73.67
10482;BME280;5288;42.334;23.876;2022-10-16T01:52:34;56399.25;;;-140.56;73.48
10482;BME280;5288;42.334;23.876;2022-10-16T01:55:04;56436.78;;;-140.56;73.41
10482;BME280;5288;42.334;23.876;2022-10-16T01:57:36;56395.28;;;-140.56;73.06
10482;BME280;5288;42.334;23.876;2022-10-16T02:00:08;56432.84;;;-140.56;73.10
10482;BME280;5288;42.334;23.876;2022-10-16T02:02:38;56415.06;;;-140.56;72.95
10482;BME280;5288;42.334;23.876;2022-10-16T02:05:12;56405.16;;;-140.56;72.82
10482;BME280;5288;42.334;23.876;2022-10-16T02:07:40;56391.34;;;-140.56;72.82
10482;BME280;5288;42.334;23.876;2022-10-16T02:10:08;56393.31;;;-140.56;72.70
10482;BME280;5288;42.334;23.876;2022-10-16T02:12:39;56432.84;;;-140.56;73.09
10482;BME280;5288;42.334;23.876;2022-10-16T02:15:08;56428.88;;;-140.56;73.15
10482;BME280;5288;42.334;23.876;2022-10-16T02:17:36;56440.75;;;-140.56;73.30
10482;BME280;5288;42.334;23.876;2022-10-16T02:20:04;56420.97;;;-140.56;73.30
10482;BME280;5288;42.334;23.876;2022-10-16T02:22:34;56428.88;;;-140.56;73.18
10482;BME280;5288;42.334;23.876;2022-10-16T02:25:06;56417.03;;;-140.56;73.48
10482;BME280;5288;42.334;23.876;2022-10-16T02:27:40;56426.91;;;-140.56;73.58
10482;BME280;5288;42.334;23.876;2022-10-16T02:30:13;56413.06;;;-140.56;73.90
10482;BME280;5288;42.334;23.876;2022-10-16T02:32:44;56422.97;;;-140.56;74.03
10482;BME280;5288;42.334;23.876;2022-10-16T02:35:13;56440.75;;;-140.56;74.17
10482;BME280;5288;42.334;23.876;2022-10-16T02:37:42;56432.84;;;-140.56;74.45
10482;BME280;5288;42.334;23.876;2022-10-16T02:40:10;56413.06;;;-140.56;74.83
10482;BME280;5288;42.334;23.876;2022-10-16T02:42:40;56395.28;;;-140.56;74.83
10482;BME280;5288;42.334;23.876;2022-10-16T02:45:10;56424.94;;;-140.56;75.09
10482;BME280;5288;42.334;23.876;2022-10-16T02:47:38;56401.22;;;-140.56;75.22
10482;BME280;5288;42.334;23.876;2022-10-16T02:50:05;56426.91;;;-140.56;75.18
10482;BME280;5288;42.334;23.876;2022-10-16T02:52:33;56430.88;;;-140.56;75.33
10482;BME280;5288;42.334;23.876;2022-10-16T02:55:00;56420.97;;;-140.56;75.47
10482;BME280;5288;42.334;23.876;2022-10-16T02:57:27;56432.84;;;-140.56;75.31
10482;BME280;5288;42.334;23.876;2022-10-16T02:59:56;56413.06;;;-140.56;74.85
10482;BME280;5288;42.334;23.876;2022-10-16T03:02:23;56411.09;;;-140.56;75.03
10482;BME280;5288;42.334;23.876;2022-10-16T03:04:50;56397.25;;;-140.56;74.67
10482;BME280;5288;42.334;23.876;2022-10-16T03:07:18;56407.16;;;-140.56;74.22
10482;BME280;5288;42.334;23.876;2022-10-16T03:09:45;56419.00;;;-140.56;74.05
10482;BME280;5288;42.334;23.876;2022-10-16T03:12:12;56393.31;;;-140.56;74.26
10482;BME280;5288;42.334;23.876;2022-10-16T03:14:39;56426.91;;;-140.56;74.30
10482;BME280;5288;42.334;23.876;2022-10-16T03:17:07;56426.91;;;-140.56;74.18
10482;BME280;5288;42.334;23.876;2022-10-16T03:19:35;56448.66;;;-140.56;74.09
10482;BME280;5288;42.334;23.876;2022-10-16T03:22:02;56434.81;;;-140.56;74.05
10482;BME280;5288;42.334;23.876;2022-10-16T03:24:29;56422.97;;;-140.56;73.67
10482;BME280;5288;42.334;23.876;2022-10-16T03:26:56;56409.13;;;-140.56;73.58
10482;BME280;5288;42.334;23.876;2022-10-16T03:29:23;56436.78;;;-140.56;73.29
10482;BME280;5288;42.334;23.876;2022-10-16T03:31:51;56426.91;;;-140.56;73.21
10482;BME280;5288;42.334;23.876;2022-10-16T03:34:20;56415.06;;;-140.56;73.27
10482;BME280;5288;42.334;23.876;2022-10-16T03:36:47;56424.94;;;-140.56;73.19
10482;BME280;5288;42.334;23.876;2022-10-16T03:39:14;56426.91;;;-140.56;73.06
10482;BME280;5288;42.334;23.876;2022-10-16T03:41:41;56428.88;;;-140.56;72.88
10482;BME280;5288;42.334;23.876;2022-10-16T03:44:08;56456.56;;;-140.56;72.75
10482;BME280;5288;42.334;23.876;2022-10-16T03:46:35;56430.88;;;-140.56;72.90
10482;BME280;5288;42.334;23.876;2022-10-16T03:49:02;56419.00;;;-140.56;72.74
10482;BME280;5288;42.334;23.876;2022-10-16T03:51:30;56417.03;;;-140.56;72.52
10482;BME280;5288;42.334;23.876;2022-10-16T03:53:57;56401.22;;;-140.56;72.73
10482;BME280;5288;42.334;23.876;2022-10-16T03:56:24;56401.22;;;-140.56;73.45
10482;BME280;5288;42.334;23.876;2022-10-16T03:58:51;56432.84;;;-140.56;73.77
10482;BME280;5288;42.334;23.876;2022-10-16T04:01:18;56391.34;;;-140.56;74.19
10482;BME280;5288;42.334;23.876;2022-10-16T04:03:45;56432.84;;;-140.56;74.05
10482;BME280;5288;42.334;23.876;2022-10-16T04:06:12;56424.94;;;-140.56;73.94
10482;BME280;5288;42.334;23.876;2022-10-16T04:08:42;56393.31;;;-140.56;73.94
10482;BME280;5288;42.334;23.876;2022-10-16T04:11:09;56424.94;;;-140.56;74.27
10482;BME280;5288;42.334;23.876;2022-10-16T04:13:36;56403.19;;;-140.56;74.67
10482;BME280;5288;42.334;23.876;2022-10-16T04:16:03;56397.25;;;-140.56;74.77
10482;BME280;5288;42.334;23.876;2022-10-16T04:18:30;56428.88;;;-140.56;74.60
10482;BME280;5288;42.334;23.876;2022-10-16T04:21:02;56389.34;;;-140.56;74.52
10482;BME280;5288;42.334;23.876;2022-10-16T04:23:29;56448.66;;;-140.56;74.61
10482;BME280;5288;42.334;23.876;2022-10-16T04:25:58;56440.75;;;-140.56;74.75
10482;BME280;5288;42.334;23.876;2022-10-16T04:28:26;56420.97;;;-140.56;74.81
10482;BME280;5288;42.334;23.876;2022-10-16T04:30:53;56428.88;;;-140.56;75.05
10482;BME280;5288;42.334;23.876;2022-10-16T04:33:20;56411.09;;;-140.56;75.15
10482;BME280;5288;42.334;23.876;2022-10-16T04:35:47;56444.69;;;-140.56;74.92
10482;BME280;5288;42.334;23.876;2022-10-16T04:38:14;56438.78;;;-140.56;75.01
10482;BME280;5288;42.334;23.876;2022-10-16T04:40:41;56424.94;;;-140.56;75.15
10482;BME280;5288;42.334;23.876;2022-10-16T04:43:10;56419.00;;;-140.56;75.22
10482;BME280;5288;42.334;23.876;2022-10-16T04:45:37;56419.00;;;-140.56;75.69
10482;BME280;5288;42.334;23.876;2022-10-16T04:48:04;56424.94;;;-140.56;76.04
10482;BME280;5288;42.334;23.876;2022-10-16T04:50:37;56454.59;;;-140.56;76.11
10482;BME280;5288;42.334;23.876;2022-10-16T04:53:10;56385.41;;;-140.56;75.74
10482;BME280;5288;42.334;23.876;2022-10-16T04:55:41;56448.66;;;-140.56;75.88
10482;BME280;5288;42.334;23.876;2022-10-16T04:58:10;56413.06;;;-140.56;76.13
10482;BME280;5288;42.334;23.876;2022-10-16T05:00:37;56432.84;;;-140.56;76.44
10482;BME280;5288;42.334;23.876;2022-10-16T05:03:05;56403.19;;;-140.56;76.86
10482;BME280;5288;42.334;23.876;2022-10-16T05:05:34;56413.06;;;-140.56;76.34
10482;BME280;5288;42.334;23.876;2022-10-16T05:08:02;56432.84;;;-140.56;76.66
10482;BME280;5288;42.334;23.876;2022-10-16T05:10:29;56420.97;;;-140.56;76.50
10482;BME280;5288;42.334;23.876;2022-10-16T05:12:56;56444.69;;;-140.56;76.49
10482;BME280;5288;42.334;23.876;2022-10-16T05:15:24;56460.50;;;-140.56;76.31
10482;BME280;5288;42.334;23.876;2022-10-16T05:17:55;56389.34;;;-140.56;75.96
10482;BME280;5288;42.334;23.876;2022-10-16T05:20:22;56432.84;;;-140.56;76.09
10482;BME280;5288;42.334;23.876;2022-10-16T05:22:49;56428.88;;;-140.56;75.86
10482;BME280;5288;42.334;23.876;2022-10-16T05:25:17;56379.47;;;-140.56;75.49
10482;BME280;5288;42.334;23.876;2022-10-16T05:27:47;56420.97;;;-140.56;75.91
10482;BME280;5288;42.334;23.876;2022-10-16T05:30:14;56415.06;;;-140.56;75.65
10482;BME280;5288;42.334;23.876;2022-10-16T05:32:46;56444.69;;;-140.56;75.76
10482;BME280;5288;42.334;23.876;2022-10-16T05:35:13;56442.72;;;-140.56;75.90
10482;BME280;5288;42.334;23.876;2022-10-16T05:37:40;56436.78;;;-140.56;76.43
10482;BME280;5288;42.334;23.876;2022-10-16T05:40:09;56450.63;;;-140.56;76.08
10482;BME280;5288;42.334;23.876;2022-10-16T05:42:36;56434.81;;;-140.56;76.01
10482;BME280;5288;42.334;23.876;2022-10-16T05:45:09;56420.97;;;-140.56;76.11
10482;BME280;5288;42.334;23.876;2022-10-16T05:47:39;56446.69;;;-140.56;75.77
10482;BME280;5288;42.334;23.876;2022-10-16T05:50:09;56424.94;;;-140.56;75.89
10482;BME280;5288;42.334;23.876;2022-10-16T05:52:37;56397.25;;;-140.56;75.89
10482;BME280;5288;42.334;23.876;2022-10-16T05:55:05;56438.78;;;-140.56;76.04
10482;BME280;5288;42.334;23.876;2022-10-16T05:57:32;56442.72;;;-140.56;76.10
10482;BME280;5288;42.334;23.876;2022-10-16T05:59:59;56448.66;;;-140.56;76.24
10482;BME280;5288;42.334;23.876;2022-10-16T06:02:27;56444.69;;;-140.56;76.11
10482;BME280;5288;42.334;23.876;2022-10-16T06:04:54;56452.59;;;-140.56;76.26
10482;BME280;5288;42.334;23.876;2022-10-16T06:07:22;56424.94;;;-140.56;76.66
10482;BME280;5288;42.334;23.876;2022-10-16T06:09:50;56403.19;;;-140.56;76.41
10482;BME280;5288;42.334;23.876;2022-10-16T06:12:17;56444.69;;;-140.56;76.79
10482;BME280;5288;42.334;23.876;2022-10-16T06:14:44;56411.09;;;-140.56;76.96
10482;BME280;5288;42.334;23.876;2022-10-16T06:17:12;56397.25;;;-140.56;77.44
10482;BME280;5288;42.334;23.876;2022-10-16T06:19:39;56454.59;;;-140.56;78.07
10482;BME280;5288;42.334;23.876;2022-10-16T06:22:06;56438.78;;;-140.56;78.45
10482;BME280;5288;42.334;23.876;2022-10-16T06:24:34;56440.75;;;-140.56;78.57
10482;BME280;5288;42.334;23.876;2022-10-16T06:27:03;56424.94;;;-140.56;79.21
10482;BME280;5288;42.334;23.876;2022-10-16T06:29:30;56424.94;;;-140.56;80.22
10482;BME280;5288;42.334;23.876;2022-10-16T06:31:57;56387.38;;;-140.56;80.13
10482;BME280;5288;42.334;23.876;2022-10-16T06:34:24;56397.25;;;-140.56;80.45
10482;BME280;5288;42.334;23.876;2022-10-16T06:36:51;56401.22;;;-140.56;80.53
10482;BME280;5288;42.334;23.876;2022-10-16T06:39:18;56381.44;;;-140.56;80.61
10482;BME280;5288;42.334;23.876;2022-10-16T06:41:46;56385.41;;;-140.56;80.77
10482;BME280;5288;42.334;23.876;2022-10-16T06:44:14;56379.47;;;-140.56;80.82
10482;BME280;5288;42.334;23.876;2022-10-16T06:46:41;56415.06;;;-140.56;80.94
10482;BME280;5288;42.334;23.876;2022-10-16T06:49:08;56357.75;;;-140.56;81.33
10482;BME280;5288;42.334;23.876;2022-10-16T06:51:36;56379.47;;;-140.56;81.12
10482;BME280;5288;42.334;23.876;2022-10-16T06:54:06;56385.41;;;-140.56;80.95
10482;BME280;5288;42.334;23.876;2022-10-16T06:56:35;56383.44;;;-140.56;80.68
10482;BME280;5288;42.334;23.876;2022-10-16T06:59:04;56387.38;;;-140.56;80.28
10482;BME280;5288;42.334;23.876;2022-10-16T07:01:32;56405.16;;;-140.56;79.31
10482;BME280;5288;42.334;23.876;2022-10-16T07:04:00;56381.44;;;-140.56;79.29
10482;BME280;5288;42.334;23.876;2022-10-16T07:06:31;56345.88;;;-140.56;77.83
10482;BME280;5288;42.334;23.876;2022-10-16T07:09:01;56375.53;;;-140.56;77.14
10482;BME280;5288;42.334;23.876;2022-10-16T07:11:29;56367.63;;;-140.56;76.07
10482;BME280;5288;42.334;23.876;2022-10-16T07:13:56;56353.78;;;-140.56;74.54
10482;BME280;5288;42.334;23.876;2022-10-16T07:16:26;56310.31;;;-140.56;74.97
10482;BME280;5288;42.334;23.876;2022-10-16T07:18:54;56353.78;;;-140.56;75.17
10482;BME280;5288;42.334;23.876;2022-10-16T07:21:25;56361.69;;;-140.56;75.24
10482;BME280;5288;42.334;23.876;2022-10-16T07:23:54;56310.31;;;-140.56;74.30
10482;BME280;5288;42.334;23.876;2022-10-16T07:26:23;56318.22;;;-140.56;73.97
10482;BME280;5288;42.334;23.876;2022-10-16T07:28:50;56334.03;;;-140.56;73.85
10482;BME280;5288;42.334;23.876;2022-10-16T07:31:19;56326.13;;;-140.56;73.49
10482;BME280;5288;42.334;23.876;2022-10-16T07:33:48;56308.34;;;-140.56;72.86
10482;BME280;5288;42.334;23.876;2022-10-16T07:36:15;56345.88;;;-140.56;72.00
10482;BME280;5288;42.334;23.876;2022-10-16T07:38:43;56330.06;;;-140.56;71.34
10482;BME280;5288;42.334;23.876;2022-10-16T07:41:12;56296.47;;;-140.56;70.53
10482;BME280;5288;42.334;23.876;2022-10-16T07:43:40;56294.50;;;-140.56;68.88
10482;BME280;5288;42.334;23.876;2022-10-16T07:46:07;56292.53;;;-140.56;68.27
10482;BME280;5288;42.334;23.876;2022-10-16T07:48:34;56304.38;;;-140.56;68.46
10482;BME280;5288;42.334;23.876;2022-10-16T07:51:04;56290.53;;;-140.56;68.13
10482;BME280;5288;42.334;23.876;2022-10-16T07:53:32;56304.38;;;-140.56;67.19
10482;BME280;5288;42.334;23.876;2022-10-16T07:56:00;56300.44;;;-140.56;66.72
10482;BME280;5288;42.334;23.876;2022-10-16T07:58:28;56288.56;;;-140.56;66.13
10482;BME280;5288;42.334;23.876;2022-10-16T08:00:55;56260.91;;;-140.56;65.96
10482;BME280;5288;42.334;23.876;2022-10-16T08:03:22;56278.69;;;-140.56;66.03
10482;BME280;5288;42.334;23.876;2022-10-16T08:05:49;56284.63;;;-140.56;65.40
10482;BME280;5288;42.334;23.876;2022-10-16T08:08:18;56298.44;;;-140.56;65.07
10482;BME280;5288;42.334;23.876;2022-10-16T08:10:45;56262.88;;;-140.56;64.64
10482;BME280;5288;42.334;23.876;2022-10-16T08:13:13;56282.63;;;-140.56;64.29
10482;BME280;5288;42.334;23.876;2022-10-16T08:15:41;56260.91;;;-140.56;63.03
10482;BME280;5288;42.334;23.876;2022-10-16T08:18:10;56254.97;;;-140.56;62.27
10482;BME280;5288;42.334;23.876;2022-10-16T08:20:37;56268.81;;;-140.56;61.96
10482;BME280;5288;42.334;23.876;2022-10-16T08:23:05;56262.88;;;-140.56;61.72
10482;BME280;5288;42.334;23.876;2022-10-16T08:25:34;56264.84;;;-140.56;60.62
10482;BME280;5288;42.334;23.876;2022-10-16T08:28:03;56235.22;;;-140.56;60.02
10482;BME280;5288;42.334;23.876;2022-10-16T08:30:30;56231.25;;;-140.56;59.61
10482;BME280;5288;42.334;23.876;2022-10-16T08:32:57;56209.50;;;-140.56;59.21
10482;BME280;5288;42.334;23.876;2022-10-16T08:35:24;56241.13;;;-140.56;58.70
10482;BME280;5288;42.334;23.876;2022-10-16T08:37:51;56217.41;;;-140.56;58.08
10482;BME280;5288;42.334;23.876;2022-10-16T08:40:20;56245.09;;;-140.56;58.93
10482;BME280;5288;42.334;23.876;2022-10-16T08:43:06;56213.47;;;-140.56;59.02
10482;BME280;5288;42.334;23.876;2022-10-16T08:45:46;56207.53;;;-140.56;58.16
10482;BME280;5288;42.334;23.876;2022-10-16T08:48:20;56253.00;;;-140.56;57.21
10482;BME280;5288;42.334;23.876;2022-10-16T08:50:52;56201.63;;;-140.56;57.15
10482;BME280;5288;42.334;23.876;2022-10-16T08:53:23;56229.28;;;-140.56;56.51
10482;BME280;5288;42.334;23.876;2022-10-16T08:55:53;56209.50;;;-140.56;56.53
10482;BME280;5288;42.334;23.876;2022-10-16T08:58:23;56185.81;;;-140.56;57.10
10482;BME280;5288;42.334;23.876;2022-10-16T09:00:54;56187.78;;;-140.56;55.56
10482;BME280;5288;42.334;23.876;2022-10-16T09:03:32;56217.41;;;-140.56;54.40
10482;BME280;5288;42.334;23.876;2022-10-16T09:09:25;56207.53;;;-140.56;54.31
10482;BME280;5288;42.334;23.876;2022-10-16T09:12:01;56203.59;;;-140.56;52.71
10482;BME280;5288;42.334;23.876;2022-10-16T09:15:01;56211.50;;;-140.56;52.07
10482;BME280;5288;42.334;23.876;2022-10-16T09:17:44;56164.06;;;-140.56;51.88
10482;BME280;5288;42.334;23.876;2022-10-16T09:20:26;56136.41;;;-140.56;52.22
10482;BME280;5288;42.334;23.876;2022-10-16T09:23:08;56142.31;;;-140.56;50.68
10482;BME280;5288;42.334;23.876;2022-10-16T09:25:37;56134.41;;;-140.56;51.40
10482;BME280;5288;42.334;23.876;2022-10-16T09:28:07;56156.16;;;-140.56;50.25
10482;BME280;5288;42.334;23.876;2022-10-16T09:30:37;56168.00;;;-140.56;50.33
10482;BME280;5288;42.334;23.876;2022-10-16T09:33:05;56162.09;;;-140.56;49.65
10482;BME280;5288;42.334;23.876;2022-10-16T09:35:37;56171.97;;;-140.56;49.38
10482;BME280;5288;42.334;23.876;2022-10-16T09:38:06;56175.91;;;-140.56;48.68
10482;BME280;5288;42.334;23.876;2022-10-16T09:40:36;56166.03;;;-140.56;49.22
10482;BME280;5288;42.334;23.876;2022-10-16T09:43:14;56144.31;;;-140.56;48.25
10482;BME280;5288;42.334;23.876;2022-10-16T09:45:53;56162.09;;;-140.56;48.48
10482;BME280;5288;42.334;23.876;2022-10-16T09:48:21;56148.25;;;-140.56;48.19
10482;BME280;5288;42.334;23.876;2022-10-16T09:50:55;56112.69;;;-140.56;48.29
10482;BME280;5288;42.334;23.876;2022-10-16T09:53:23;56120.59;;;-140.56;45.36
10482;BME280;5288;42.334;23.876;2022-10-16T09:55:51;56136.41;;;-140.56;46.67
10482;BME280;5288;42.334;23.876;2022-10-16T09:58:21;56092.91;;;-140.56;45.42
10482;BME280;5288;42.334;23.876;2022-10-16T10:00:52;56124.53;;;-140.56;44.65
10482;BME280;5288;42.334;23.876;2022-10-16T10:03:35;56170.00;;;-140.56;46.03
10482;BME280;5288;42.334;23.876;2022-10-16T10:06:17;56112.69;;;-140.56;45.27
10482;BME280;5288;42.334;23.876;2022-10-16T10:09:05;56140.34;;;-140.56;44.95
10482;BME280;5288;42.334;23.876;2022-10-16T10:11:40;56120.59;;;-140.56;44.49
10482;BME280;5288;42.334;23.876;2022-10-16T10:14:17;56108.72;;;-140.56;43.82
10482;BME280;5288;42.334;23.876;2022-10-16T10:16:47;56088.97;;;-140.56;42.37
10482;BME280;5288;42.334;23.876;2022-10-16T10:19:16;56104.78;;;-140.56;44.35
10482;BME280;5288;42.334;23.876;2022-10-16T10:21:43;56118.59;;;-140.56;41.47
10482;BME280;5288;42.334;23.876;2022-10-16T10:24:13;56122.56;;;-140.56;42.07
10482;BME280;5288;42.334;23.876;2022-10-16T10:26:47;56065.25;;;-140.56;40.93
10482;BME280;5288;42.334;23.876;2022-10-16T10:29:26;56092.91;;;-140.56;40.99
10482;BME280;5288;42.334;23.876;2022-10-16T10:32:03;56085.00;;;-140.56;40.35
10482;BME280;5288;42.334;23.876;2022-10-16T10:34:43;56079.09;;;-140.56;39.94
10482;BME280;5288;42.334;23.876;2022-10-16T10:37:25;56071.19;;;-140.56;41.14
10482;BME280;5288;42.334;23.876;2022-10-16T10:40:01;56114.66;;;-140.56;40.09
10482;BME280;5288;42.334;23.876;2022-10-16T10:42:32;56112.69;;;-140.56;39.53
10482;BME280;5288;42.334;23.876;2022-10-16T10:45:16;56100.81;;;-140.56;39.58
10482;BME280;5288;42.334;23.876;2022-10-16T10:47:57;56100.81;;;-140.56;40.01
10482;BME280;5288;42.334;23.876;2022-10-16T10:50:34;56049.44;;;-140.56;40.17
10482;BME280;5288;42.334;23.876;2022-10-16T10:53:13;56112.69;;;-140.56;39.24
10482;BME280;5288;42.334;23.876;2022-10-16T10:55:49;56025.72;;;-140.56;38.54
10482;BME280;5288;42.334;23.876;2022-10-16T10:58:42;56114.66;;;-140.56;38.52
10482;BME280;5288;42.334;23.876;2022-10-16T11:01:16;56102.81;;;-140.56;39.03
10482;BME280;5288;42.334;23.876;2022-10-16T11:04:11;56077.09;;;-140.56;38.96
10482;BME280;5288;42.334;23.876;2022-10-16T11:06:46;56081.06;;;-140.56;38.69
10482;BME280;5288;42.334;23.876;2022-10-16T11:09:18;56063.28;;;-140.56;35.30
10482;BME280;5288;42.334;23.876;2022-10-16T11:11:51;56077.09;;;-140.56;35.90
10482;BME280;5288;42.334;23.876;2022-10-16T11:14:23;56059.31;;;-140.56;34.39
10482;BME280;5288;42.334;23.876;2022-10-16T11:16:56;56031.66;;;-140.56;33.59
10482;BME280;5288;42.334;23.876;2022-10-16T11:19:33;56047.47;;;-140.56;32.94
10482;BME280;5288;42.334;23.876;2022-10-16T11:22:06;56043.50;;;-140.56;34.36
10482;BME280;5288;42.334;23.876;2022-10-16T11:24:41;56015.84;;;-140.56;32.92
10482;BME280;5288;42.334;23.876;2022-10-16T11:27:15;56013.88;;;-140.56;33.02
10482;BME280;5288;42.334;23.876;2022-10-16T11:29:48;56065.25;;;-140.56;33.39
10482;BME280;5288;42.334;23.876;2022-10-16T11:32:22;56009.91;;;-140.56;33.81
10482;BME280;5288;42.334;23.876;2022-10-16T11:34:55;56013.88;;;-140.56;33.69
10482;BME280;5288;42.334;23.876;2022-10-16T11:37:26;56015.84;;;-140.56;34.49
10482;BME280;5288;42.334;23.876;2022-10-16T11:39:58;56023.75;;;-140.56;34.12
10482;BME280;5288;42.334;23.876;2022-10-16T11:42:33;56015.84;;;-140.56;33.86
10482;BME280;5288;42.334;23.876;2022-10-16T11:45:11;56039.56;;;-140.56;33.29
10482;BME280;5288;42.334;23.876;2022-10-16T11:47:44;56021.78;;;-140.56;32.88
10482;BME280;5288;42.334;23.876;2022-10-16T11:50:22;56002.00;;;-140.56;32.89
10482;BME280;5288;42.334;23.876;2022-10-16T11:52:55;56025.72;;;-140.56;32.37
10482;BME280;5288;42.334;23.876;2022-10-16T11:55:27;56013.88;;;-140.56;32.24
10482;BME280;5288;42.334;23.876;2022-10-16T11:58:00;56011.91;;;-140.56;32.87
10482;BME280;5288;42.334;23.876;2022-10-16T12:00:33;55986.22;;;-140.56;32.88
10482;BME280;5288;42.334;23.876;2022-10-16T12:03:11;56009.91;;;-140.56;32.05
10482;BME280;5288;42.334;23.876;2022-10-16T12:05:55;56031.66;;;-140.56;32.20
10482;BME280;5288;42.334;23.876;2022-10-16T12:08:26;56009.91;;;-140.56;33.09
10482;BME280;5288;42.334;23.876;2022-10-16T12:10:53;56013.88;;;-140.56;32.53
10482;BME280;5288;42.334;23.876;2022-10-16T12:13:29;56021.78;;;-140.56;32.45
10482;BME280;5288;42.334;23.876;2022-10-16T12:16:07;55998.06;;;-140.56;31.67
10482;BME280;5288;42.334;23.876;2022-10-16T12:18:47;55994.13;;;-140.56;31.54
10482;BME280;5288;42.334;23.876;2022-10-16T12:21:17;56021.78;;;-140.56;33.76
10482;BME280;5288;42.334;23.876;2022-10-16T12:23:49;55990.16;;;-140.56;33.01
10482;BME280;5288;42.334;23.876;2022-10-16T12:26:24;55960.53;;;-140.56;33.08
10482;BME280;5288;42.334;23.876;2022-10-16T12:28:52;55998.06;;;-140.56;32.87
10482;BME280;5288;42.334;23.876;2022-10-16T12:31:19;55998.06;;;-140.56;33.79
10482;BME280;5288;42.334;23.876;2022-10-16T12:33:59;56002.00;;;-140.56;32.77
10482;BME280;5288;42.334;23.876;2022-10-16T12:36:30;56025.72;;;-140.56;33.17
10482;BME280;5288;42.334;23.876;2022-10-16T12:38:59;56009.91;;;-140.56;32.45
10482;BME280;5288;42.334;23.876;2022-10-16T12:41:29;55994.13;;;-140.56;32.23
10482;BME280;5288;42.334;23.876;2022-10-16T12:43:57;55980.28;;;-140.56;31.25
10482;BME280;5288;42.334;23.876;2022-10-16T12:46:38;56031.66;;;-140.56;32.73
10482;BME280;5288;42.334;23.876;2022-10-16T12:49:19;56031.66;;;-140.56;32.44
10482;BME280;5288;42.334;23.876;2022-10-16T12:51:49;55988.19;;;-140.56;32.23
10482;BME280;5288;42.334;23.876;2022-10-16T12:54:18;56047.47;;;-140.56;32.26
10482;BME280;5288;42.334;23.876;2022-10-16T12:56:54;56057.34;;;-140.56;33.08
10482;BME280;5288;42.334;23.876;2022-10-16T12:59:31;56071.19;;;-140.56;33.02
10482;BME280;5288;42.334;23.876;2022-10-16T13:02:18;56002.00;;;-140.56;33.41